Bei Facebook empfehlenBei Twitter postenGoogle plusPinterest

Das Wetter im Erzgebirge am 15.05.2016

Wetter und Klima am 15.05.2016 Holzhau im Erzgebirge (630m ü.NN)
Letzte gemessene Temperatur und Uhrzeit der Messung23:45:00 Uhr2.90 °C
Temperatur (Maximum / Höchstwert) und Uhrzeit der Messung14:15:00 Uhr9.10 °C
Temperatur (Minimum / Tiefstwert) und Uhrzeit der Messung21:00:001.30 °C
Errechneter Absolutwert der Temperaturschwankungen zwischen Tmin und Tmax des Tages7.80 K
Errechnete Tagesmitteltemperatur3.35208 °C
Gesamt - Niederschlag des Tages (in flüssiger Form)3.63 Liter / m²
Luftdruck (Maximum / Höchstwert) und Zeitpunkt der Messung23:45:00 Uhr1012.20 hPa
Luftdruck (Minimum / Tiefstwert) und Zeitpunkt der Messung00:15:00 Uhr1007.00 hPa
Errechneter Absolutwert der Luftdruckschwankungen des Tages5.20 hPa
Höchste gemessene Windgeschwindigkeit und Uhrzeit der Messung23:45:00 Uhr0.00 km/h
Errechnete Windhäufigkeit in Relation zu den Messwerten des Tages0.00000 %
Niedrigste Windkühle (Windchill) und Zeitpunkt der Messung21:00:00 Uhr1.30 °C
Taupunkt (Maximum / Höchstwert) und Uhrzeit der Messung13:30:00 Uhr5.10 °C
Taupunkt (Minimum / Tiefstwert) und Uhrzeit der Messung03:00:00-0.70 °C
Anzahl der automatisch eingelesenen Messwerte 96

Detaillierte Wetter- und Klima- Messwerte für den 15.05.2016 in Holzhau im Erzgebirge (630m ü.NN)
ZeitTemperaturLuftdruckRel. LuftfeuchteWindWindrichtungWindchillTaupunktNiederschlag l/m²
23:45:002.90 °C1012.20 hPa91.00 %1.60 °C3.63
23:30:002.90 °C1012.20 hPa91.00 %1.60 °C3.63
23:15:002.90 °C1012.10 hPa91.00 %1.60 °C3.63
23:00:002.90 °C1012.10 hPa90.00 %1.40 °C3.63
22:45:002.80 °C1012.00 hPa90.00 %1.30 °C3.63
22:30:002.60 °C1011.90 hPa90.00 %1.10 °C3.63
22:15:002.40 °C1011.70 hPa89.00 %0.80 °C3.63
22:00:002.40 °C1011.90 hPa89.00 %0.80 °C3.63
21:45:002.40 °C1011.60 hPa89.00 %0.80 °C3.63
21:30:002.10 °C1011.60 hPa88.00 %0.30 °C3.63
21:15:001.70 °C1011.60 hPa88.00 %-0.10 °C3.63
21:00:001.30 °C1011.50 hPa87.00 %-0.60 °C3.63
20:45:001.50 °C1011.30 hPa87.00 %-0.40 °C3.63
20:30:001.60 °C1011.30 hPa87.00 %-0.30 °C3.63
20:15:001.70 °C1011.10 hPa86.00 %-0.40 °C3.63
20:00:001.90 °C1011.20 hPa86.00 %-0.20 °C3.63
19:45:002.20 °C1011.00 hPa86.00 %0.10 °C3.63
19:30:002.20 °C1010.90 hPa85.00 %-0.10 °C3.63
19:15:002.30 °C1011.00 hPa84.00 %-0.10 °C3.63
19:00:002.50 °C1010.90 hPa84.00 %0.10 °C3.63
18:45:002.40 °C1010.90 hPa82.00 %-0.40 °C3.63
18:30:003.20 °C1011.30 hPa80.00 %0.10 °C3.11
18:15:005.30 °C1011.20 hPa79.00 %2.00 °C2.59
18:00:006.20 °C1010.30 hPa79.00 %2.80 °C2.59
17:45:006.70 °C1010.40 hPa79.00 %3.30 °C2.59
17:30:007.00 °C1010.20 hPa82.00 %4.10 °C2.59
17:15:006.90 °C1010.40 hPa84.00 %4.40 °C2.59
17:00:006.10 °C1010.40 hPa84.00 %3.60 °C2.59
16:45:005.90 °C1010.50 hPa84.00 %3.40 °C2.59
16:30:006.30 °C1010.70 hPa84.00 %3.80 °C2.59
16:15:005.40 °C1010.60 hPa84.00 %2.90 °C2.59
16:00:004.40 °C1010.80 hPa83.00 %1.80 °C2.59
15:45:004.80 °C1011.40 hPa79.00 %1.50 °C2.07
15:30:006.90 °C1010.50 hPa79.00 %3.50 °C1.04
15:15:007.40 °C1010.60 hPa80.00 %4.20 °C1.04
15:00:006.40 °C1010.40 hPa81.00 %3.40 °C1.04
14:45:005.60 °C1010.50 hPa78.00 %2.10 °C1.04
14:30:005.80 °C1011.00 hPa72.00 %1.20 °C1.04
14:15:009.10 °C1010.10 hPa73.00 %4.50 °C1.04
14:00:007.90 °C1010.10 hPa74.00 %3.60 °C1.04
13:45:008.20 °C1010.00 hPa78.00 %4.60 °C1.04
13:30:007.80 °C1010.30 hPa83.00 %5.10 °C1.04
13:15:006.90 °C1010.00 hPa85.00 %4.60 °C1.04
13:00:006.20 °C1010.20 hPa89.00 %4.50 °C1.04
12:45:005.60 °C1010.40 hPa89.00 %3.90 °C0.52
12:30:005.60 °C1010.40 hPa91.00 %4.20 °C0.52
12:15:004.30 °C1010.50 hPa91.00 %3.00 °C0.52
12:00:003.60 °C1010.50 hPa91.00 %2.30 °C0.52
11:45:002.60 °C1010.70 hPa91.00 %1.30 °C0.52
11:30:002.60 °C1010.60 hPa91.00 %1.30 °C0.52
11:15:002.70 °C1010.60 hPa91.00 %1.40 °C0.52
11:00:002.80 °C1010.40 hPa91.00 %1.50 °C0.52
10:45:002.70 °C1010.40 hPa91.00 %1.40 °C0.52
10:30:002.80 °C1010.00 hPa91.00 %1.50 °C0.52
10:15:002.80 °C1009.90 hPa90.00 %1.30 °C0.52
10:00:002.60 °C1009.70 hPa90.00 %1.10 °C0.52
09:45:002.40 °C1009.70 hPa90.00 %0.90 °C0.52
09:30:002.30 °C1009.80 hPa90.00 %0.80 °C0.52
09:15:002.20 °C1009.50 hPa89.00 %0.60 °C0.52
09:00:002.00 °C1009.50 hPa89.00 %0.40 °C 
08:45:001.90 °C1009.10 hPa89.00 %0.30 °C 
08:30:001.90 °C1009.30 hPa89.00 %0.30 °C 
08:15:001.70 °C1009.10 hPa88.00 %-0.10 °C 
08:00:001.50 °C1008.90 hPa88.00 %-0.30 °C 
07:45:001.30 °C1008.80 hPa87.00 %-0.60 °C 
07:30:001.40 °C1008.80 hPa87.00 %-0.50 °C 
07:15:001.70 °C1008.70 hPa87.00 %-0.20 °C 
07:00:001.80 °C1008.50 hPa86.00 %-0.30 °C 
06:45:001.90 °C1008.30 hPa86.00 %-0.20 °C 
06:30:002.10 °C1008.10 hPa85.00 %-0.20 °C 
06:15:002.10 °C1008.00 hPa85.00 %-0.20 °C 
06:00:001.90 °C1008.00 hPa84.00 %-0.50 °C 
05:45:002.40 °C1008.00 hPa84.00 %0.00 °C 
05:30:002.30 °C1007.80 hPa84.00 %-0.10 °C 
05:15:002.20 °C1007.80 hPa85.00 %-0.10 °C 
05:00:002.10 °C1007.90 hPa85.00 %-0.20 °C 
04:45:001.90 °C1007.80 hPa84.00 %-0.50 °C 
04:30:001.90 °C1007.80 hPa84.00 %-0.50 °C 
04:15:002.10 °C1007.60 hPa84.00 %-0.30 °C 
04:00:002.20 °C1007.50 hPa84.00 %-0.20 °C 
03:45:002.30 °C1007.60 hPa85.00 %0.00 °C 
03:30:002.20 °C1007.50 hPa85.00 %-0.10 °C 
03:15:001.90 °C1007.50 hPa84.00 %-0.50 °C 
03:00:001.90 °C1007.30 hPa83.00 %-0.70 °C 
02:45:002.30 °C1007.60 hPa83.00 %-0.30 °C 
02:30:002.60 °C1007.20 hPa83.00 %0.00 °C 
02:15:002.70 °C1007.50 hPa83.00 %0.10 °C 
02:00:002.70 °C1007.40 hPa83.00 %0.10 °C 
01:45:002.80 °C1007.50 hPa83.00 %0.20 °C 
01:30:002.80 °C1007.20 hPa83.00 %0.20 °C 
01:15:002.90 °C1007.10 hPa83.00 %0.30 °C 
01:00:002.90 °C1007.40 hPa83.00 %0.30 °C 
00:45:002.70 °C1007.40 hPa83.00 %0.10 °C 
00:30:002.60 °C1007.10 hPa83.00 %0.00 °C 
00:15:002.50 °C1007.00 hPa83.00 %-0.10 °C 
00:00:002.10 °C1007.20 hPa82.00 %-0.60 °C 

Permanenter Link zu dieser Seite: Wetter im Erzgebirge am 15.05.2016
Performance-Info: Die Erstellung der Seite / Statistik(en) / Tabelle(n) erforderte 5 Datenbankserver-Abfrage(n) und dauerte 97 Millisekunden. (Dieser Messwert ist von der Gesamt-Auslastung des Servers abhängig.)
Erzgebirge - Wetter | Erzgebirge - Wetter (Mobilgeräte) | Komplette Klimadatenbank